Impacts METAR Board
IDs:

KPHX - Phoenix/Sky Harbor, AZ, US

Updated at: 1500 UTC 10 Aug 2022
Potential Impact None Slight Moderate High
Time 10/03Z 10/04Z 10/05Z 10/06Z 10/07Z 10/08Z 10/09Z 10/10Z 10/11Z 10/12Z 10/13Z 10/14Z 10/15Z
Temp96 94 95 91 91 89 88 87 86 86 84 86 86
Dewpt62 64 61 68 66 67 67 67 67 67 65 66 66
Altim29.88 29.89 29.91 29.92 29.93 29.94 29.95 29.95 29.96 29.96 29.97 29.99 30.00
VIS10 10 10 10 10 10 10 10 10 10 10 10 10
CIG250 250 290 250 200 200 190 190 200 190 190 210 170
CoverBKNBKNBKNBKNBKNBKNBKNBKNBKNBKNBKNBKNBKN
FltCatVFRVFRVFRVFRVFRVFRVFRVFRVFRVFRVFRVFRVFR
WX--------------------------
WDir240220300220140130110140150140100110110
WSpd3 5 6 3 5 9 8 10 12 10 8 10 6
WGst-- -- -- -- -- -- -- -- -- -- -- -- --
Raw hourly METARs
KPHX 100251Z 24003KT 10SM FEW080 SCT150 BKN250 BKN290 36/17 A2988 RMK AO2 SLP097 CONS LTGCGIC DSNT NE CB DSNT NE AND SE T03560167 53010
KPHX 100351Z 22005KT 10SM FEW150 BKN250 BKN290 34/18 A2989 RMK AO2 SLP102 T03440178
KPHX 100451Z 30006KT 10SM FEW150 SCT250 BKN290 35/16 A2991 RMK AO2 SLP106 T03500161
KPHX 100551Z 22003KT 10SM SCT150 BKN250 BKN290 33/20 A2992 RMK AO2 SLP111 FRQ LTGIC DSNT E-SE CB DSNT E-SE T03280200 10367 20328 51013
KPHX 100651Z 14005KT 10SM SCT150 BKN200 BKN250 33/19 A2993 RMK AO2 SLP114 T03280189 403670244
KPHX 100751Z 13009KT 10SM SCT180 BKN200 32/19 A2994 RMK AO2 SLP117 T03170194
KPHX 100851Z 11008KT 10SM BKN190 31/19 A2995 RMK AO2 SLP121 T03110194 52010
KPHX 100951Z 14010KT 10SM FEW140 BKN190 31/19 A2995 RMK AO2 SLP120 T03060194
KPHX 101051Z 15012KT 10SM BKN200 30/19 A2996 RMK AO2 SLP124 T03000194
KPHX 101151Z COR 14010KT 10SM FEW120 BKN190 30/19 A2996 RMK AO2 SLP124 70007 T03000194 10333 20300 53004
KPHX 101251Z 10008KT 10SM FEW120 SCT140 BKN190 BKN210 29/18 A2997 RMK AO2 SLP127 T02890183
KPHX 101351Z 11010KT 10SM FEW140 SCT190 BKN210 30/19 A2999 RMK AO2 SLP133 T03000189
KPHX 101451Z 11006KT 10SM SCT150 BKN170 BKN210 30/19 A3000 RMK AO2 SLP137 T03000189 53013



Page loaded:  15:20 UTC  |   08:20 AM Pacific  |   09:20 AM Mountain  |   10:20 AM Central  |   11:20 AM Eastern

 

ADVISORIES

FORECASTS

FORECASTS

OBSERVATIONS

USER TOOLS

ABOUT US